Time;durP1;ratioP1;P1;durP2;ratioP2;P2;SDS_P1;SDS_P2;PMS_P1;PMS_P2;Temp;Humidity;BMP_temperature;BMP_pressure;BME280_temperature;BME280_humidity;BME280_pressure;Samples;Min_cycle;Max_cycle;Signal;HPM_P1;HPM_P2
2021/06/25 00:01:11;;;;;;;6.43;4.57;;;26.60;53.90;;;;;;4954187;29;20433;-83
2021/06/25 00:03:36;;;;;;;6.00;4.40;;;26.50;53.90;;;;;;4955385;29;20450;-83
2021/06/25 00:06:02;;;;;;;4.60;4.03;;;26.50;53.90;;;;;;4954255;29;20441;-83
2021/06/25 00:08:28;;;;;;;6.90;5.13;;;26.50;54.00;;;;;;4972074;29;20238;-83
2021/06/25 00:10:59;;;;;;;5.63;4.70;;;26.50;54.50;;;;;;4970779;29;20442;-83
2021/06/25 00:13:25;;;;;;;8.30;5.47;;;26.50;54.00;;;;;;4953666;29;20181;-83
2021/06/25 00:15:54;;;;;;;7.97;5.07;;;26.50;54.00;;;;;;4953682;29;20422;-83
2021/06/25 00:18:23;;;;;;;7.70;5.00;;;26.50;54.00;;;;;;4954052;29;21032;-83
2021/06/25 00:20:49;;;;;;;7.00;5.40;;;26.40;54.00;;;;;;4970276;29;20836;-84
2021/06/25 00:23:15;;;;;;;7.63;5.83;;;26.40;54.00;;;;;;4953800;29;20446;-83
2021/06/25 00:25:41;;;;;;;7.73;5.60;;;26.40;54.10;;;;;;4952748;29;20414;-83
2021/06/25 00:28:09;;;;;;;7.47;5.10;;;26.40;54.10;;;;;;4970245;29;20174;-83
2021/06/25 00:30:35;;;;;;;6.73;5.30;;;26.40;54.10;;;;;;4952736;29;20442;-83
2021/06/25 00:33:01;;;;;;;6.10;4.73;;;26.40;54.20;;;;;;4952490;29;20418;-83
2021/06/25 00:35:29;;;;;;;7.83;5.00;;;26.40;54.20;;;;;;4952463;29;20174;-83
2021/06/25 00:37:55;;;;;;;7.07;5.60;;;26.40;54.20;;;;;;4952911;29;20177;-83
2021/06/25 00:40:25;;;;;;;7.00;4.97;;;26.40;54.30;;;;;;4952204;29;20429;-83
2021/06/25 00:46:13;;;;;;;6.10;5.07;;;26.40;54.20;;;;;;4974139;28;20433;-83
2021/06/25 00:48:39;;;;;;;7.60;5.70;;;26.40;54.40;;;;;;4957009;29;20461;-84
2021/06/25 00:51:05;;;;;;;9.13;5.20;;;26.40;54.30;;;;;;4956546;29;20454;-84
2021/06/25 00:53:32;;;;;;;9.50;5.97;;;26.40;54.30;;;;;;4957005;29;20436;-83
2021/06/25 00:55:58;;;;;;;10.43;5.70;;;26.40;54.30;;;;;;4974201;29;20490;-84
2021/06/25 00:58:24;;;;;;;7.07;5.20;;;26.40;54.30;;;;;;4957663;29;20789;-83
2021/06/25 01:00:49;;;;;;;8.23;4.90;;;26.40;54.30;;;;;;4974867;29;20457;-83
2021/06/25 01:03:16;;;;;;;8.50;4.90;;;26.40;54.20;;;;;;4958271;29;20197;-83
2021/06/25 01:05:45;;;;;;;7.70;5.77;;;26.40;54.30;;;;;;4974975;29;20193;-84
2021/06/25 01:08:11;;;;;;;8.50;5.80;;;26.40;54.20;;;;;;4973563;29;20881;-84
2021/06/25 01:10:41;;;;;;;7.57;6.13;;;26.40;54.20;;;;;;4974317;29;20410;-84
2021/06/25 01:13:08;;;;;;;5.80;5.00;;;26.40;54.20;;;;;;4973786;29;20449;-83
2021/06/25 01:15:35;;;;;;;6.17;5.10;;;26.40;54.20;;;;;;4975406;29;20788;-84
2021/06/25 01:18:01;;;;;;;8.60;4.90;;;26.50;54.30;;;;;;4958068;29;20422;-83
2021/06/25 01:20:30;;;;;;;8.97;6.40;;;26.40;54.20;;;;;;4956702;29;20426;-83
2021/06/25 01:22:57;;;;;;;9.00;5.90;;;26.40;54.20;;;;;;4973314;29;20542;-83
2021/06/25 01:25:28;;;;;;;13.13;5.90;;;26.40;54.20;;;;;;4972444;29;20414;-83
2021/06/25 01:28:00;;;;;;;9.00;5.53;;;26.50;54.20;;;;;;4974061;29;20464;-83
2021/06/25 01:30:29;;;;;;;7.10;5.67;;;26.40;54.20;;;;;;4986336;28;20433;-84
2021/06/25 01:32:55;;;;;;;9.17;5.70;;;26.40;54.30;;;;;;4975078;28;20437;-84
2021/06/25 01:35:22;;;;;;;8.70;5.13;;;26.40;54.30;;;;;;4974951;28;20417;-83
2021/06/25 01:37:48;;;;;;;6.67;5.37;;;26.30;54.30;;;;;;4975058;28;20907;-84
2021/06/25 01:40:18;;;;;;;9.20;5.20;;;26.30;54.30;;;;;;4991404;28;20419;-83
2021/06/25 01:42:46;;;;;;;7.30;5.40;;;26.30;54.40;;;;;;4991532;28;20390;-84
2021/06/25 01:45:21;;;;;;;7.53;6.30;;;26.30;54.40;;;;;;4991922;28;20409;-84
2021/06/25 01:47:49;;;;;;;7.73;6.47;;;26.30;54.40;;;;;;4973910;28;20462;-83
2021/06/25 01:50:23;;;;;;;10.90;6.97;;;26.20;54.40;;;;;;4974689;28;20429;-84
2021/06/25 01:52:57;;;;;;;11.50;6.10;;;26.20;54.50;;;;;;4991479;28;20436;-84
2021/06/25 01:55:25;;;;;;;12.27;6.67;;;26.20;54.50;;;;;;4973622;28;20404;-84
2021/06/25 01:57:51;;;;;;;9.30;7.07;;;26.20;54.50;;;;;;4973748;28;20429;-84
2021/06/25 02:00:17;;;;;;;11.33;7.30;;;26.20;54.60;;;;;;4974219;28;20443;-83
2021/06/25 02:02:44;;;;;;;11.37;8.70;;;26.20;54.60;;;;;;4991648;28;20417;-84
2021/06/25 02:05:12;;;;;;;10.13;8.00;;;26.20;54.60;;;;;;4973655;28;20429;-84
2021/06/25 02:07:38;;;;;;;17.10;9.00;;;26.20;54.70;;;;;;4973938;28;20432;-84
2021/06/25 02:10:07;;;;;;;12.20;8.97;;;26.20;54.60;;;;;;4974063;28;20463;-83
2021/06/25 02:12:35;;;;;;;12.60;7.60;;;26.20;54.70;;;;;;4973825;28;20523;-84
2021/06/25 02:15:00;;;;;;;8.27;7.40;;;26.20;54.70;;;;;;4973822;28;20461;-84
2021/06/25 02:17:26;;;;;;;10.50;7.50;;;26.10;54.70;;;;;;4973710;28;20420;-84
2021/06/25 02:19:52;;;;;;;15.10;9.40;;;26.10;54.70;;;;;;4973443;28;20247;-83
2021/06/25 02:22:18;;;;;;;15.63;9.27;;;26.10;54.70;;;;;;4990256;28;20192;-84
2021/06/25 02:24:44;;;;;;;12.67;7.80;;;26.10;54.70;;;;;;4990724;28;20286;-83
2021/06/25 02:27:12;;;;;;;11.50;8.47;;;26.10;54.70;;;;;;4973955;28;20182;-84
2021/06/25 02:29:40;;;;;;;14.37;9.00;;;26.10;54.70;;;;;;4973265;28;20477;-84
2021/06/25 02:32:06;;;;;;;13.60;8.27;;;26.10;54.80;;;;;;4973058;28;20875;-84
2021/06/25 02:34:32;;;;;;;11.20;8.30;;;26.10;54.80;;;;;;4973208;28;20429;-84
2021/06/25 02:36:58;;;;;;;14.37;8.80;;;26.10;54.80;;;;;;4973192;28;20431;-84
2021/06/25 02:39:33;;;;;;;11.83;9.33;;;26.10;54.80;;;;;;4973257;28;20903;-84
2021/06/25 02:41:59;;;;;;;15.40;10.00;;;26.10;54.80;;;;;;4973331;28;20429;-84
2021/06/25 02:44:28;;;;;;;12.13;9.90;;;26.10;54.80;;;;;;4990419;28;20413;-84
2021/06/25 02:46:54;;;;;;;17.07;10.30;;;26.00;54.80;;;;;;4973192;28;20675;-82
2021/06/25 02:49:20;;;;;;;19.47;10.93;;;26.00;54.80;;;;;;4975115;28;20500;-82
2021/06/25 02:51:46;;;;;;;13.40;10.20;;;26.00;54.80;;;;;;4974806;28;20464;-82
2021/06/25 02:54:15;;;;;;;12.70;9.13;;;26.00;54.80;;;;;;4975002;28;20862;-82
2021/06/25 02:56:41;;;;;;;12.17;9.60;;;26.00;54.80;;;;;;4973807;28;20189;-83
2021/06/25 02:59:07;;;;;;;12.70;9.90;;;26.00;54.80;;;;;;4973735;28;20422;-84
2021/06/25 03:01:33;;;;;;;12.70;8.70;;;26.00;54.80;;;;;;4972471;28;20186;-84
2021/06/25 03:04:01;;;;;;;9.43;8.43;;;26.00;54.80;;;;;;4971829;28;20425;-84
2021/06/25 03:06:27;;;;;;;10.40;7.53;;;26.00;54.90;;;;;;4973863;28;20413;-82
2021/06/25 03:08:54;;;;;;;8.93;8.03;;;26.00;54.90;;;;;;4975232;28;20421;-83
2021/06/25 03:11:20;;;;;;;10.13;7.80;;;26.00;54.90;;;;;;4974974;28;20985;-83
2021/06/25 03:13:47;;;;;;;9.67;7.30;;;26.00;54.90;;;;;;4974635;28;20424;-83
2021/06/25 03:16:13;;;;;;;13.40;7.80;;;26.00;54.90;;;;;;4974468;28;20519;-83
2021/06/25 03:18:39;;;;;;;9.80;7.40;;;26.00;54.90;;;;;;4991486;28;20437;-83
2021/06/25 03:21:05;;;;;;;9.33;6.93;;;26.00;55.00;;;;;;4972402;28;20413;-84
2021/06/25 03:23:31;;;;;;;10.40;7.20;;;25.90;54.90;;;;;;4972345;28;20185;-83
2021/06/25 03:25:57;;;;;;;9.90;6.77;;;26.00;55.00;;;;;;4972620;28;20421;-83
2021/06/25 03:28:26;;;;;;;10.07;7.80;;;25.90;54.90;;;;;;4989810;28;20488;-83
2021/06/25 03:30:52;;;;;;;6.80;6.00;;;25.90;54.90;;;;;;4972550;28;20277;-83
2021/06/25 03:33:18;;;;;;;8.30;6.27;;;25.90;55.00;;;;;;4972915;28;20425;-84
2021/06/25 03:35:44;;;;;;;6.80;6.20;;;25.90;55.00;;;;;;4972315;28;20189;-83
2021/06/25 03:38:10;;;;;;;8.43;6.00;;;25.90;55.00;;;;;;4970542;28;20484;-85
2021/06/25 03:40:36;;;;;;;7.47;6.20;;;25.90;55.00;;;;;;4969431;28;20181;-85
2021/06/25 03:43:04;;;;;;;7.40;6.43;;;25.90;55.10;;;;;;4970450;28;20516;-85
2021/06/25 03:45:30;;;;;;;6.20;5.40;;;25.90;55.10;;;;;;4967768;28;20471;-85
2021/06/25 03:47:56;;;;;;;6.77;6.07;;;25.90;55.10;;;;;;4950141;29;20454;-85
2021/06/25 03:50:22;;;;;;;5.67;5.07;;;25.90;55.10;;;;;;4950567;29;20426;-84
2021/06/25 03:52:48;;;;;;;7.40;5.57;;;25.90;55.10;;;;;;4949877;29;20238;-85
2021/06/25 03:55:15;;;;;;;6.40;5.73;;;25.90;55.10;;;;;;4950079;29;20505;-85
2021/06/25 03:57:45;;;;;;;6.90;5.57;;;25.90;55.20;;;;;;4950186;29;20458;-85
2021/06/25 04:00:17;;;;;;;6.07;5.47;;;25.90;55.20;;;;;;4951017;29;20425;-85
2021/06/25 04:02:44;;;;;;;6.23;5.53;;;25.90;55.20;;;;;;4951165;29;20433;-84
2021/06/25 04:05:10;;;;;;;5.93;5.03;;;25.90;55.20;;;;;;4951848;29;20418;-84
2021/06/25 04:07:37;;;;;;;7.00;4.97;;;25.90;55.20;;;;;;4967819;29;20422;-85
2021/06/25 04:10:05;;;;;;;5.20;4.67;;;25.90;55.30;;;;;;4967497;29;20422;-85
2021/06/25 04:12:32;;;;;;;8.27;5.30;;;25.90;55.20;;;;;;4968080;29;20516;-85
2021/06/25 04:15:00;;;;;;;5.70;5.10;;;25.90;55.30;;;;;;4950266;29;20425;-84
2021/06/25 04:18:04;;;;;;;5.70;5.03;;;25.90;55.30;;;;;;4950956;29;20496;-89
2021/06/25 04:20:32;;;;;;;5.20;4.70;;;25.90;55.30;;;;;;4943161;29;20433;-91
2021/06/25 04:22:58;;;;;;;5.13;4.63;;;25.90;55.40;;;;;;4953278;29;20446;-84
2021/06/25 04:25:24;;;;;;;5.03;4.50;;;25.90;55.40;;;;;;4953405;29;20481;-84
2021/06/25 04:27:51;;;;;;;4.80;4.40;;;25.90;55.40;;;;;;4970061;29;20174;-84
2021/06/25 04:30:17;;;;;;;5.73;4.30;;;25.90;55.40;;;;;;4953395;29;20422;-84
2021/06/25 04:32:43;;;;;;;4.73;4.23;;;25.90;55.40;;;;;;4952978;29;20465;-84
2021/06/25 04:35:10;;;;;;;4.23;3.83;;;25.90;55.60;;;;;;4953744;29;20422;-84
2021/06/25 04:37:38;;;;;;;4.67;4.10;;;25.90;55.40;;;;;;4953631;29;20461;-84
2021/06/25 04:40:05;;;;;;;4.80;4.33;;;25.90;55.40;;;;;;4952860;29;20425;-84
2021/06/25 04:42:31;;;;;;;6.37;4.40;;;25.90;55.40;;;;;;4952654;29;20449;-84
2021/06/25 04:44:57;;;;;;;6.00;4.60;;;25.90;55.40;;;;;;4953066;29;20426;-84
2021/06/25 04:47:22;;;;;;;3.67;3.37;;;25.90;55.40;;;;;;4953413;29;20484;-84
2021/06/25 04:50:45;;;;;;;5.00;3.97;;;25.90;55.40;;;;;;4954467;29;20197;-82
2021/06/25 04:53:11;;;;;;;7.57;4.47;;;25.90;55.40;;;;;;4955607;29;20473;-83
2021/06/25 04:55:41;;;;;;;5.80;4.27;;;25.90;55.50;;;;;;4957950;29;20395;-82
2021/06/25 04:58:09;;;;;;;4.73;3.80;;;25.90;55.50;;;;;;4954450;29;20429;-82
2021/06/25 05:00:36;;;;;;;5.90;4.10;;;25.90;55.50;;;;;;4955637;29;20406;-81
2021/06/25 05:03:03;;;;;;;9.90;4.87;;;25.90;55.50;;;;;;4955256;29;20415;-82
2021/06/25 05:05:32;;;;;;;15.30;5.30;;;25.90;55.50;;;;;;4954425;29;20422;-84
2021/06/25 05:08:02;;;;;;;6.03;4.03;;;25.90;55.50;;;;;;4960505;29;20426;-83
2021/06/25 05:10:39;;;;;;;5.90;4.97;;;25.90;55.50;;;;;;4944720;29;20449;-84
2021/06/25 05:13:15;;;;;;;6.30;4.13;;;25.90;55.50;;;;;;4944333;29;20489;-83
2021/06/25 05:15:58;;;;;;;8.53;4.50;;;25.90;55.50;;;;;;4946268;29;20410;-83
2021/06/25 05:18:26;;;;;;;6.00;4.50;;;25.90;55.50;;;;;;4960576;29;20418;-83
2021/06/25 05:20:53;;;;;;;4.83;4.23;;;25.90;55.50;;;;;;4960881;29;20426;-83
2021/06/25 05:23:24;;;;;;;4.23;3.83;;;25.90;55.50;;;;;;4960092;29;20433;-83
2021/06/25 05:25:50;;;;;;;4.87;4.47;;;25.90;55.50;;;;;;4961057;29;20426;-83
2021/06/25 05:28:24;;;;;;;5.13;3.70;;;25.90;55.50;;;;;;4959953;28;20415;-83
2021/06/25 05:30:50;;;;;;;4.13;3.73;;;25.90;55.50;;;;;;4962372;29;20177;-83
2021/06/25 05:33:16;;;;;;;3.93;3.53;;;25.90;55.50;;;;;;4961321;29;20421;-83
2021/06/25 05:35:52;;;;;;;;;;;;;;;;;;;;;
2021/06/25 05:38:30;;;;;;;5.00;4.20;;;25.90;55.50;;;;;;4978269;29;20434;-83
2021/06/25 05:40:56;;;;;;;6.20;3.83;;;25.90;55.50;;;;;;4960868;29;20441;-82
2021/06/25 05:43:22;;;;;;;4.03;3.63;;;25.90;55.50;;;;;;4961478;29;20453;-83
2021/06/25 05:45:49;;;;;;;5.40;3.37;;;25.90;55.50;;;;;;4978881;29;20449;-83
2021/06/25 05:48:16;;;;;;;6.20;3.77;;;26.00;55.60;;;;;;4962089;29;20438;-83
2021/06/25 05:57:24;;;;;;;3.57;3.13;;;25.90;55.50;;;;;;4896087;29;20404;-83
2021/06/25 05:59:50;;;;;;;3.20;2.50;;;25.90;55.70;;;;;;4881843;29;20474;-83
2021/06/25 06:02:17;;;;;;;3.30;3.00;;;25.90;55.60;;;;;;4881563;29;20433;-83
2021/06/25 06:04:43;;;;;;;3.97;3.20;;;25.90;55.60;;;;;;4880784;29;20445;-82
2021/06/25 06:07:14;;;;;;;3.13;2.83;;;25.90;55.60;;;;;;4880219;29;20425;-83
2021/06/25 06:09:41;;;;;;;5.87;3.60;;;25.90;55.60;;;;;;4879928;29;20821;-83
2021/06/25 06:12:07;;;;;;;3.10;2.80;;;25.90;55.60;;;;;;4880131;29;20548;-82
2021/06/25 06:14:36;;;;;;;3.37;3.07;;;25.90;55.70;;;;;;4879675;29;20509;-83
2021/06/25 06:17:11;;;;;;;3.60;3.17;;;25.90;55.60;;;;;;4896126;29;20418;-83
2021/06/25 06:19:43;;;;;;;3.67;3.27;;;25.90;55.60;;;;;;4881204;29;20770;-83
2021/06/25 06:39:41;;;;;;;4.23;2.67;;;25.90;55.70;;;;;;4913094;29;20400;-83
2021/06/25 06:42:09;;;;;;;4.00;3.70;;;25.90;56.40;;;;;;4912787;29;20409;-83
2021/06/25 06:44:47;;;;;;;4.10;2.83;;;25.90;55.80;;;;;;4897668;29;20453;-83
2021/06/25 06:47:25;;;;;;;3.23;2.93;;;25.90;55.80;;;;;;4913040;29;20465;-83
2021/06/25 06:49:53;;;;;;;3.73;2.80;;;25.90;55.80;;;;;;4897394;29;20421;-83
2021/06/25 06:52:25;;;;;;;3.00;2.70;;;25.90;55.80;;;;;;4899693;29;20493;-83
2021/06/25 06:55:03;;;;;;;2.73;2.47;;;25.90;56.30;;;;;;4901102;29;20444;-83
2021/06/25 06:57:29;;;;;;;3.47;2.77;;;25.90;55.70;;;;;;4901325;29;20416;-83
2021/06/25 07:00:05;;;;;;;3.53;2.80;;;25.90;55.70;;;;;;4901355;29;20446;-83
2021/06/25 07:02:31;;;;;;;3.67;2.97;;;25.90;55.70;;;;;;4901326;29;20443;-83
2021/06/25 07:04:57;;;;;;;3.53;2.60;;;25.90;55.70;;;;;;4901385;29;20428;-83
2021/06/25 07:07:23;;;;;;;2.90;2.60;;;25.90;55.80;;;;;;4901058;29;20445;-83
2021/06/25 07:09:52;;;;;;;4.27;2.80;;;25.90;55.70;;;;;;4916698;29;20465;-83
2021/06/25 07:12:21;;;;;;;2.87;2.53;;;26.00;55.80;;;;;;4886105;29;20296;-83
2021/06/25 07:14:50;;;;;;;4.63;2.53;;;25.90;55.70;;;;;;4916189;29;20444;-83
2021/06/25 07:17:30;;;;;;;3.60;2.70;;;25.90;55.70;;;;;;4901267;29;20420;-83
2021/06/25 07:19:58;;;;;;;3.13;2.77;;;26.00;55.70;;;;;;4956780;29;20469;-82
2021/06/25 07:22:26;;;;;;;3.80;3.10;;;25.90;55.70;;;;;;4957463;29;20512;-82
2021/06/25 07:25:02;;;;;;;3.03;2.73;;;25.90;55.70;;;;;;4958947;29;20494;-84
2021/06/25 07:27:29;;;;;;;3.80;2.73;;;26.00;55.70;;;;;;4963722;29;20414;-82
2021/06/25 07:29:55;;;;;;;3.40;3.10;;;25.90;55.70;;;;;;4963045;29;20450;-82
2021/06/25 07:32:27;;;;;;;3.03;2.30;;;25.90;55.70;;;;;;4960880;29;20473;-82
2021/06/25 07:34:53;;;;;;;5.90;2.87;;;26.00;55.80;;;;;;4966413;29;20410;-81
2021/06/25 07:37:19;;;;;;;3.13;2.90;;;26.00;55.80;;;;;;4980217;29;20410;-82
2021/06/25 07:39:45;;;;;;;4.07;3.00;;;26.00;55.80;;;;;;4963140;29;20430;-83
2021/06/25 07:42:11;;;;;;;2.70;2.50;;;26.00;55.80;;;;;;4963258;29;20246;-83
2021/06/25 07:44:37;;;;;;;3.13;2.60;;;26.00;55.80;;;;;;4962912;29;20414;-83
2021/06/25 07:47:04;;;;;;;2.77;2.47;;;26.00;55.80;;;;;;4954815;29;20226;-82
2021/06/25 07:49:34;;;;;;;2.90;2.70;;;26.00;55.80;;;;;;4960986;29;20493;-82
2021/06/25 07:52:02;;;;;;;3.00;2.37;;;26.00;55.80;;;;;;4960344;29;20482;-83
2021/06/25 07:54:29;;;;;;;3.13;2.40;;;26.00;55.70;;;;;;4943977;29;20442;-83
2021/06/25 07:56:56;;;;;;;2.53;2.33;;;26.00;55.70;;;;;;4960083;29;20415;-82
2021/06/25 07:59:27;;;;;;;2.37;2.17;;;26.00;55.70;;;;;;4943592;29;20471;-82
2021/06/25 08:02:03;;;;;;;2.80;2.30;;;26.00;55.70;;;;;;4942697;29;20443;-82
2021/06/25 08:04:38;;;;;;;2.37;2.10;;;26.00;55.70;;;;;;4952066;29;20789;-82
2021/06/25 08:07:25;;;;;;;2.87;2.50;;;26.00;55.80;;;;;;4962301;29;20421;-82
2021/06/25 08:09:56;;;;;;;2.13;1.93;;;26.00;56.30;;;;;;4962190;29;20406;-82
2021/06/25 08:12:22;;;;;;;2.43;2.23;;;26.00;55.80;;;;;;4961543;29;20466;-82
2021/06/25 08:14:50;;;;;;;2.90;2.40;;;26.00;55.80;;;;;;4961754;29;20428;-82
2021/06/25 08:17:21;;;;;;;3.00;2.10;;;26.00;55.80;;;;;;4961291;29;20163;-82
2021/06/25 08:19:48;;;;;;;2.40;2.20;;;26.00;55.80;;;;;;4961629;29;20450;-81
2021/06/25 08:22:14;;;;;;;1.80;1.70;;;26.00;55.70;;;;;;4945552;29;20425;-81
2021/06/25 08:24:52;;;;;;;2.17;1.90;;;26.00;55.80;;;;;;4961022;29;20428;-81
2021/06/25 08:27:18;;;;;;;2.77;2.13;;;26.00;55.80;;;;;;4960842;29;20190;-82
2021/06/25 08:29:44;;;;;;;2.40;2.20;;;26.00;55.90;;;;;;4977665;29;20446;-82
2021/06/25 08:32:30;;;;;;;2.20;1.90;;;26.10;55.90;;;;;;4961185;29;20501;-82
2021/06/25 08:35:07;;;;;;;;;;;;;;;;;;;;;
2021/06/25 08:41:08;;;;;;;2.77;2.00;;;26.10;55.90;;;;;;4913643;29;20417;-82
2021/06/25 08:43:35;;;;;;;2.20;2.00;;;26.00;56.00;;;;;;4898967;29;20978;-82
2021/06/25 08:46:05;;;;;;;2.10;1.90;;;26.10;56.00;;;;;;4914242;29;20441;-82
2021/06/25 08:48:33;;;;;;;2.20;2.00;;;26.10;56.00;;;;;;4899110;29;20449;-82
2021/06/25 08:50:59;;;;;;;2.80;2.30;;;26.10;56.10;;;;;;4914461;29;20457;-83
2021/06/25 08:53:28;;;;;;;1.87;1.70;;;26.10;56.00;;;;;;4899879;29;20810;-82
2021/06/25 08:56:00;;;;;;;2.30;2.10;;;26.00;56.00;;;;;;4899750;29;20188;-82
2021/06/25 08:58:36;;;;;;;1.87;1.67;;;26.10;56.00;;;;;;4900604;29;20432;-82
2021/06/25 09:01:03;;;;;;;2.00;1.80;;;26.00;55.90;;;;;;4915746;29;20425;-82
2021/06/25 09:03:33;;;;;;;1.63;1.50;;;26.00;55.90;;;;;;4899455;29;20456;-82
2021/06/25 09:06:14;;;;;;;2.03;1.83;;;26.10;55.90;;;;;;4918239;29;20420;-82
2021/06/25 09:08:43;;;;;;;2.83;1.93;;;26.10;55.90;;;;;;4917684;29;20439;-82
2021/06/25 09:11:19;;;;;;;2.17;1.80;;;26.10;56.00;;;;;;4901355;29;20468;-81
2021/06/25 09:13:45;;;;;;;1.83;1.70;;;26.20;56.10;;;;;;4904958;29;20444;-82
2021/06/25 09:16:38;;;;;;;2.30;1.80;;;26.00;55.90;;;;;;4939476;29;20422;-82
2021/06/25 09:19:14;;;;;;;4.53;1.70;;;26.10;55.90;;;;;;4939854;29;20186;-82
2021/06/25 09:22:02;;;;;;;2.20;1.90;;;26.10;55.90;;;;;;4939767;29;20434;-82
2021/06/25 09:24:34;;;;;;;2.10;1.90;;;26.10;55.90;;;;;;4939108;29;20446;-82
2021/06/25 09:27:09;;;;;;;2.20;2.00;;;26.00;55.90;;;;;;4942195;29;20431;-82
2021/06/25 09:29:40;;;;;;;3.27;2.20;;;26.10;55.90;;;;;;4942004;29;20426;-82
2021/06/25 09:32:16;;;;;;;3.20;2.37;;;26.10;55.80;;;;;;4958462;29;20442;-82
2021/06/25 09:35:39;;;;;;;;;;;;;;;;;;;;;
2021/06/25 09:41:24;;;;;;;2.77;2.57;;;26.10;55.70;;;;;;4900241;29;20409;-82
2021/06/25 09:44:20;;;;;;;3.10;2.80;;;26.00;55.70;;;;;;4901446;29;20425;-82
2021/06/25 09:46:49;;;;;;;3.60;3.30;;;26.10;55.70;;;;;;4898956;29;20438;-82
2021/06/25 09:49:24;;;;;;;3.20;2.90;;;26.00;55.70;;;;;;4899042;29;20408;-82
2021/06/25 09:51:58;;;;;;;4.07;3.33;;;26.10;55.70;;;;;;4899072;29;20492;-81
2021/06/25 09:54:31;;;;;;;3.63;3.33;;;26.10;55.70;;;;;;4897383;29;20410;-81
2021/06/25 09:57:13;;;;;;;3.60;3.30;;;26.10;55.60;;;;;;4881667;29;20449;-82
2021/06/25 10:00:09;;;;;;;5.27;3.67;;;26.10;55.60;;;;;;4897497;29;20410;-83
2021/06/25 10:06:23;;;;;;;3.57;2.83;;;26.10;55.60;;;;;;4872147;29;20435;-80
2021/06/25 10:12:14;;;;;;;3.53;2.90;;;26.20;55.40;;;;;;4962722;29;20469;-82
2021/06/25 10:14:56;;;;;;;3.03;2.70;;;26.20;55.50;;;;;;4961812;29;20427;-82
2021/06/25 10:17:36;;;;;;;2.93;2.70;;;26.30;55.40;;;;;;4945730;29;20450;-82
2021/06/25 10:30:51;;;;;;;2.67;2.47;;;26.40;55.30;;;;;;4904372;29;20432;-82
2021/06/25 10:33:17;;;;;;;2.80;2.60;;;26.40;55.30;;;;;;4900478;29;20465;-82
2021/06/25 10:35:44;;;;;;;3.50;2.43;;;26.40;55.30;;;;;;4883172;29;20437;-82
2021/06/25 10:38:20;;;;;;;2.80;2.60;;;26.40;55.20;;;;;;4897114;29;20930;-82
2021/06/25 10:41:03;;;;;;;2.67;2.47;;;26.50;55.10;;;;;;4895511;29;20498;-82
2021/06/25 10:43:52;;;;;;;2.43;2.23;;;26.50;55.10;;;;;;4879984;29;20968;-83
2021/06/25 10:46:52;;;;;;;3.30;2.53;;;26.60;55.10;;;;;;4879971;29;20414;-82
2021/06/25 10:49:22;;;;;;;3.00;2.70;;;26.60;55.10;;;;;;4840846;29;20425;-82
2021/06/25 10:51:53;;;;;;;4.70;3.37;;;26.60;55.10;;;;;;4811036;29;20475;-83
2021/06/25 10:54:23;;;;;;;2.83;2.63;;;26.60;55.00;;;;;;4825711;29;20862;-82
2021/06/25 10:56:49;;;;;;;2.60;2.40;;;26.70;55.10;;;;;;4840222;29;20480;-82
2021/06/25 10:59:26;;;;;;;2.57;2.37;;;26.60;55.00;;;;;;4841048;29;20943;-82
2021/06/25 11:01:58;;;;;;;3.03;2.73;;;26.70;55.00;;;;;;4827050;29;20202;-82
2021/06/25 11:04:48;;;;;;;2.73;2.53;;;26.70;55.00;;;;;;4827077;29;20582;-83
2021/06/25 11:07:44;;;;;;;3.17;2.80;;;26.70;54.80;;;;;;4818243;29;20424;-83
2021/06/25 11:10:19;;;;;;;3.07;2.80;;;26.70;54.90;;;;;;4827468;29;20448;-83
2021/06/25 11:12:49;;;;;;;2.83;2.53;;;26.70;54.90;;;;;;4841431;29;20489;-83
2021/06/25 11:21:53;;;;;;;2.87;2.60;;;26.70;54.90;;;;;;4839373;29;20434;-82
2021/06/25 11:24:49;;;;;;;2.97;2.67;;;26.70;55.00;;;;;;4824685;29;20423;-82
2021/06/25 11:27:17;;;;;;;3.30;2.80;;;26.80;54.90;;;;;;4936239;29;20443;-82
2021/06/25 11:29:49;;;;;;;2.73;2.53;;;26.70;54.90;;;;;;4952267;29;20412;-83
2021/06/25 11:32:29;;;;;;;3.10;2.83;;;26.80;54.90;;;;;;4936698;29;20473;-83
2021/06/25 11:34:56;;;;;;;2.80;2.40;;;26.80;54.80;;;;;;4936593;29;20433;-83
2021/06/25 11:37:44;;;;;;;3.33;3.03;;;26.80;54.90;;;;;;4936104;29;20434;-84
2021/06/25 11:40:10;;;;;;;3.00;2.67;;;26.80;54.80;;;;;;4954435;29;20453;-82
2021/06/25 11:42:39;;;;;;;2.83;2.63;;;26.80;54.80;;;;;;4972588;29;20414;-83
2021/06/25 11:45:06;;;;;;;2.97;2.70;;;26.80;54.70;;;;;;4955942;29;20493;-83
2021/06/25 11:47:33;;;;;;;3.03;2.80;;;26.90;54.80;;;;;;4972189;29;20482;-83
2021/06/25 11:50:00;;;;;;;3.13;2.70;;;26.80;54.70;;;;;;4973360;29;20905;-83
2021/06/25 11:52:33;;;;;;;3.00;2.80;;;26.90;54.70;;;;;;4956049;29;20484;-82
2021/06/25 11:55:10;;;;;;;3.20;2.73;;;26.90;54.70;;;;;;4956294;29;20414;-82
2021/06/25 11:57:44;;;;;;;2.90;2.60;;;26.90;54.60;;;;;;4971631;28;20480;-81
2021/06/25 12:00:17;;;;;;;2.87;2.57;;;26.90;54.60;;;;;;4992837;28;20420;-82
2021/06/25 12:02:58;;;;;;;2.80;2.60;;;26.90;54.60;;;;;;4974623;28;20417;-82
2021/06/25 12:05:34;;;;;;;3.43;3.13;;;26.90;54.60;;;;;;4975387;28;20421;-82
2021/06/25 12:08:03;;;;;;;3.27;2.97;;;26.90;54.60;;;;;;4974811;28;20409;-82
2021/06/25 12:10:29;;;;;;;2.87;2.67;;;26.90;54.60;;;;;;4992021;28;20421;-81
2021/06/25 12:12:59;;;;;;;3.03;2.67;;;26.90;54.60;;;;;;4975599;28;20464;-82
2021/06/25 12:15:36;;;;;;;3.03;2.70;;;26.90;54.50;;;;;;4992453;28;20409;-83
2021/06/25 12:18:02;;;;;;;3.60;3.30;;;26.90;54.50;;;;;;4975560;28;20413;-82
2021/06/25 12:20:31;;;;;;;3.30;3.00;;;26.90;54.50;;;;;;4975992;28;20427;-82
2021/06/25 12:23:05;;;;;;;3.50;3.20;;;26.90;54.50;;;;;;4992294;28;20397;-82
2021/06/25 12:25:45;;;;;;;3.67;3.37;;;26.90;54.40;;;;;;4992935;28;20400;-82
2021/06/25 12:28:22;;;;;;;3.17;2.97;;;26.90;54.40;;;;;;4932585;28;20428;-82
2021/06/25 12:31:01;;;;;;;3.70;3.40;;;26.90;55.00;;;;;;4964796;29;20425;-82
2021/06/25 12:33:32;;;;;;;3.70;3.40;;;26.90;54.40;;;;;;4956543;29;20426;-81
2021/06/25 12:36:04;;;;;;;3.67;3.37;;;26.90;54.40;;;;;;4955388;29;20410;-81
2021/06/25 12:38:33;;;;;;;4.87;4.17;;;26.90;54.40;;;;;;4955589;29;20417;-82
2021/06/25 12:41:09;;;;;;;3.70;3.03;;;26.90;54.40;;;;;;4955355;29;20429;-83
2021/06/25 12:43:40;;;;;;;3.90;3.57;;;26.90;54.30;;;;;;4955096;29;20795;-83
2021/06/25 12:46:14;;;;;;;3.90;3.50;;;26.90;54.30;;;;;;4955081;29;20422;-82
2021/06/25 12:49:03;;;;;;;4.53;4.00;;;26.90;54.30;;;;;;4955332;29;20437;-83
2021/06/25 12:51:34;;;;;;;3.97;3.60;;;26.90;54.30;;;;;;4955681;29;20484;-83
2021/06/25 12:54:05;;;;;;;3.60;3.30;;;26.90;54.40;;;;;;4955421;29;20493;-83
2021/06/25 12:56:41;;;;;;;4.23;3.83;;;26.90;54.40;;;;;;4955088;29;20453;-83
2021/06/25 12:59:21;;;;;;;4.03;3.63;;;26.90;54.40;;;;;;4955661;29;20441;-82
2021/06/25 13:01:59;;;;;;;4.80;4.40;;;27.00;54.40;;;;;;4955871;29;20430;-83
2021/06/25 13:04:33;;;;;;;3.60;3.30;;;27.00;54.40;;;;;;4955176;29;20418;-82
2021/06/25 13:10:26;;;;;;;4.57;4.17;;;27.00;54.40;;;;;;4968735;28;20527;-82
2021/06/25 13:12:52;;;;;;;4.10;3.80;;;26.90;54.40;;;;;;4956239;29;20469;-82
2021/06/25 13:15:23;;;;;;;4.00;3.23;;;26.90;54.40;;;;;;4975051;29;20410;-82
2021/06/25 13:17:54;;;;;;;4.20;3.80;;;26.90;54.40;;;;;;4977086;29;20477;-82
2021/06/25 13:20:25;;;;;;;4.30;3.90;;;26.90;54.30;;;;;;4958835;29;20445;-82
2021/06/25 13:23:01;;;;;;;4.07;3.70;;;26.90;54.30;;;;;;4959884;29;20927;-82
2021/06/25 13:25:45;;;;;;;4.03;3.27;;;26.90;54.30;;;;;;4973219;29;20426;-82
2021/06/25 13:28:14;;;;;;;4.07;3.67;;;27.00;54.30;;;;;;4956036;29;20428;-82
2021/06/25 13:30:40;;;;;;;3.67;3.37;;;26.90;54.30;;;;;;4953242;29;20453;-83
2021/06/25 13:33:14;;;;;;;4.23;3.83;;;26.90;54.30;;;;;;4954859;29;20469;-83
2021/06/25 13:35:51;;;;;;;3.50;3.20;;;26.90;54.30;;;;;;4954645;29;20773;-82
2021/06/25 13:38:40;;;;;;;3.80;3.00;;;26.90;54.20;;;;;;4955247;29;20409;-83
2021/06/25 13:41:33;;;;;;;4.17;2.97;;;26.90;54.20;;;;;;4954928;29;20454;-83
2021/06/25 13:44:02;;;;;;;3.23;2.93;;;26.90;54.30;;;;;;4954669;29;20442;-82
2021/06/25 13:46:40;;;;;;;3.40;3.10;;;26.90;54.30;;;;;;4954585;29;20424;-83
2021/06/25 13:49:10;;;;;;;4.47;3.63;;;26.90;54.30;;;;;;4955305;28;20466;-83
2021/06/25 13:51:39;;;;;;;3.53;3.00;;;26.90;54.30;;;;;;4977001;29;20462;-82
2021/06/25 13:54:20;;;;;;;3.30;3.00;;;26.90;54.20;;;;;;4959167;29;20425;-82
2021/06/25 13:57:04;;;;;;;3.57;3.27;;;26.90;54.20;;;;;;4959392;29;20524;-82
2021/06/25 14:02:50;;;;;;;3.33;3.03;;;27.00;54.30;;;;;;4953564;29;20429;-82
2021/06/25 14:09:02;;;;;;;2.87;2.67;;;26.90;54.20;;;;;;4976392;29;20399;-82
2021/06/25 14:14:56;;;;;;;3.17;2.83;;;26.90;54.80;;;;;;4976815;29;20390;-85
2021/06/25 14:18:02;;;;;;;3.23;2.93;;;26.90;54.30;;;;;;4975362;29;20434;-82
2021/06/25 14:24:06;;;;;;;3.07;2.87;;;26.90;54.20;;;;;;4978714;28;20409;-82